Homewood Airport

CJT8 · Manitoba, Canada

METAR historie CJT8 · Homewood Airport

Hieronder zie je METAR's van de afgelopen dagen. Kies een jaar om door oudere METAR's te bladeren, vanaf het jaar 2007.

24 april 2024

Tijd Code Weer Temp. Zicht Plafond Wind METAR/SPECI
20:00
V
18 °C 15 mi 24.000 ft 090° 090° 5 kt METAR CYPG 250100Z 09005KT 15SM FEW100 BKN240 18/M03 A2997 RMK CU1CI4 DENSITY ALT 1423FT SLP155
19:00
V
20 °C 15 mi - 360° 360° 4 kt METAR CYPG 250000Z 36004KT 260V020 15SM FEW100 SCT240 20/M05 A2997 RMK CU1CI3 DENSITY ALT 1667FT SLP157
18:00
V
21 °C 15 mi - 340° 340° 4 kt METAR CYPG 242300Z 34004KT 320V030 15SM FEW100 SCT240 21/M05 A2998 RMK CU2CI1 DENSITY ALT 1763FT SLP159
17:00
V
21 °C 15 mi - 290° 290° 6 kt METAR CYPG 242200Z 29006KT 230V340 15SM FEW100 SCT240 21/M04 A2998 RMK CU2CI1 DENSITY ALT 1812FT SLP160
16:00
V
20 °C 15 mi - 170° 170° 2 kt METAR CYPG 242100Z 17002KT 15SM FEW097 SCT240 20/M04 A2999 RMK CU2CI1 DENSITY ALT 1695FT SLP165
15:00
V
20 °C 15 mi - 210° 210° 10 - 17 kt METAR CYPG 242000Z 21010G17KT 140V280 15SM FEW064 FEW120 FEW240 20/M04 A3002 RMK CU1AC1CI1 DENSITY ALT 1615FT SLP172
14:00
V
19 °C 15 mi - 220° 220° 12 kt METAR CYPG 241900Z 22012KT 15SM FEW120 FEW240 19/M03 A3004 RMK AC1CI1 DENSITY ALT 1499FT SLP179
13:00
V
18 °C 15 mi - 190° 190° 17 - 22 kt METAR CYPG 241800Z 19017G22KT 15SM FEW240 18/M04 A3006 RMK CI1 DENSITY ALT 1340FT SLP186
12:00
V
16 °C 15 mi - 190° 190° 14 - 19 kt METAR CYPG 241700Z 19014G19KT 150V210 15SM FEW240 16/M05 A3009 RMK CI1 DENSITY ALT 1084FT SLP198
11:00
V
15 °C 15 mi - 200° 200° 16 kt METAR CYPG 241600Z 20016KT 15SM FEW100 15/M05 A3010 RMK AC1 DENSITY ALT 929FT SLP203
10:00
V
11 °C 15 mi - 180° 180° 12 kt METAR CYPG 241500Z 18012KT 15SM FEW095 11/M06 A3012 RMK AC1 DENSITY ALT 435FT SLP208
09:00
V
6 °C 15 mi - 170° 170° 7 kt METAR CYPG 241400Z 17007KT 15SM FEW090 06/M06 A3013 RMK AC1 DENSITY ALT -177FT SLP215
08:00
V
1 °C 15 mi - 120° 120° 5 kt METAR CYPG 241300Z 12005KT 15SM FEW090 01/M05 A3015 RMK AC1 DENSITY ALT -878FT SLP221
07:00
V
-3 °C 15 mi - 120° 120° 4 kt METAR CYPG 241200Z 12004KT 15SM FEW090 M03/M07 A3015 RMK AC2 DENSITY ALT -1449FT SLP222
06:00
V
-5 °C 15 mi - 120° 120° 3 kt METAR CYPG 241100Z 12003KT 15SM FEW090 M05/M08 A3015 RMK AC2 DENSITY ALT -1665FT FST OBS SLP224
00:00
V
-4 °C 15 mi - 110° 110° 6 kt METAR CYPG 240500Z 11006KT 15SM SKC M04/M08 A3016 RMK DENSITY ALT -1543FT LAST OBS /NEXT 241100 UTC SLP227

23 april 2024

Tijd Code Weer Temp. Zicht Plafond Wind METAR/SPECI
23:00
V
1 °C 15 mi - 200° 200° 3 kt METAR CYPG 240400Z 20003KT 15SM SKC 01/M07 A3016 RMK DENSITY ALT -923FT SLP226
22:00
V
2 °C 15 mi - 090° 090° 2 kt METAR CYPG 240300Z 09002KT 15SM SKC 02/M08 A3016 RMK DENSITY ALT -743FT SLP224
21:00
V
5 °C 15 mi - 020° 020° 2 kt METAR CYPG 240200Z 02002KT 15SM FEW150 05/M08 A3014 RMK AC1 DENSITY ALT -363FT SLP219
20:00
V
7 °C 15 mi - 010° 010° 5 kt METAR CYPG 240100Z 01005KT 15SM FEW150 07/M09 A3014 RMK AC1 DENSITY ALT -138FT SLP217
19:00
V
8 °C 15 mi - 010° 010° 7 kt METAR CYPG 240000Z 01007KT 15SM FEW150 08/M10 A3013 RMK AC1 DENSITY ALT -3FT SLP215
18:00
V
8 °C 15 mi - 330° 330° 7 kt METAR CYPG 232300Z 33007KT 15SM FEW240 08/M09 A3013 RMK CI2 DENSITY ALT 37FT SLP214
17:00
V
8 °C 15 mi - 010° 010° 11 kt METAR CYPG 232200Z 01011KT 330V030 15SM SCT240 08/M08 A3012 RMK CI3 DENSITY ALT 63FT SLP209
16:00
V
8 °C 15 mi - 330° 330° 13 kt METAR CYPG 232100Z 33013KT 310V040 15SM FEW240 08/M07 A3011 RMK CI1 DENSITY ALT 67FT SLP207
15:00
V
8 °C 15 mi - 350° 350° 12 - 17 kt METAR CYPG 232000Z 35012G17KT 15SM FEW240 08/M08 A3010 RMK CI1 DENSITY ALT 39FT SLP203
14:00
V
7 °C 15 mi - 350° 350° 16 - 21 kt METAR CYPG 231900Z 35016G21KT 15SM FEW240 07/M06 A3009 RMK CI1 DENSITY ALT -6FT SLP198
13:00
V
6 °C 15 mi - 350° 350° 14 - 20 kt METAR CYPG 231800Z 35014G20KT 15SM SKC 06/M05 A3008 RMK DENSITY ALT -141FT SLP195
12:00
V
5 °C 15 mi - 350° 350° 16 - 21 kt METAR CYPG 231700Z 35016G21KT 15SM SKC 05/M04 A3007 RMK DENSITY ALT -329FT SLP190
11:00
V
4 °C 15 mi - 330° 330° 17 - 22 kt METAR CYPG 231600Z 33017G22KT 15SM FEW240 04/M04 A3003 RMK CI1 DENSITY ALT -410FT SLP178
10:00
V
3 °C 15 mi - 340° 340° 15 - 20 kt METAR CYPG 231500Z 34015G20KT 15SM FEW240 03/M04 A2999 RMK CI1 DENSITY ALT -443FT SLP164
09:00
V
3 °C 15 mi - 360° 360° 13 - 20 kt METAR CYPG 231400Z 36013G20KT 15SM FEW160 FEW230 03/M04 A2995 RMK AC1CI1 DENSITY ALT -447FT PRESRR SLP151
08:00
V
2 °C 15 mi - 350° 350° 14 - 20 kt METAR CYPG 231300Z 35014G20KT 15SM FEW080 FEW230 02/M04 A2992 RMK AC1CI2 DENSITY ALT -489FT PRESRR AC TR SLP139
07:00
V
1 °C 15 mi - 340° 340° 13 - 20 kt METAR CYPG 231200Z 34013G20KT 15SM FEW042 FEW080 SCT230 01/M04 A2987 RMK SC1AC2CI1 DENSITY ALT -495FT PRESRR SLP123
06:00
V
3 °C 15 mi - 340° 340° 16 - 22 kt METAR CYPG 231100Z 34016G22KT 15SM FEW042 FEW080 SCT230 03/M04 A2981 RMK SC1AC1CI1 DENSITY ALT -271FT FST OBS SLP101
00:00
V
8 °C 15 mi 10.000 ft 330° 330° 8 kt METAR CYPG 230500Z 33008KT 15SM FEW075 BKN100 08/03 A2952 RMK AC1AC6 DENSITY ALT 773FT LAST OBS /NEXT 231100 UTC SLP001

22 april 2024

Tijd Code Weer Temp. Zicht Plafond Wind METAR/SPECI
23:07
V
8 °C 15 mi 5.700 ft 290° 290° 8 kt METAR CYPG 230407Z 29008KT 15SM -SHRA BKN057 OVC070 08/04 A2950 RMK SC5AC3 DENSITY ALT 836FT SLP996
22:00
V
8 °C 15 mi 7.500 ft 290° 290° 4 kt METAR CYPG 230300Z 29004KT 15SM BKN075 BKN092 08/03 A2950 RMK AC5AC2 DENSITY ALT 844FT SLP994
21:00
V
10 °C 15 mi 25.000 ft 310° 310° 8 kt METAR CYPG 230200Z 31008KT 15SM FEW058 SCT079 BKN250 10/03 A2948 RMK SC2AC1CI3 DENSITY ALT 1054FT SLP987
20:00
V
12 °C 15 mi 25.000 ft 290° 290° 6 kt METAR CYPG 230100Z 29006KT 15SM SCT042 SCT058 BKN250 12/04 A2946 RMK SC3SC1CI2 DENSITY ALT 1340FT SLP979
19:00
V
12 °C 15 mi 25.000 ft 250° 250° 10 kt METAR CYPG 230000Z 25010KT 15SM SCT064 SCT080 BKN250 12/03 A2946 RMK SC3AC1CI3 DENSITY ALT 1370FT SLP982
18:39
V
13 °C 15 mi 9.000 ft 240° 240° 12 kt METAR CYPG 222339Z 24012KT 15SM SCT064 BKN090 BKN250 13/03 A2946 RMK SC4AC1CI2 DENSITY ALT 1494FT SLP982
18:09
V
13 °C 15 mi 6.400 ft 240° 240° 16 kt METAR CYPG 222309Z 24016KT 15SM -SHRA BKN064 BKN090 13/02 A2946 RMK SC6AC1 DENSITY ALT 1488FT SLP983
18:00
V
13 °C 15 mi 6.400 ft 290° 290° 12 kt METAR CYPG 222300Z CCA 29012KT 15SM BKN064 BKN090 13/01 A2946 RMK SC5AC2 DENSITY ALT 1520FT VIRGA SLP982
17:00
V
15 °C 15 mi 8.600 ft 260° 260° 16 kt METAR CYPG 222200Z 26016KT 15SM SCT065 BKN086 15/01 A2946 RMK CU3AC4 DENSITY ALT 1648FT SH SW SLP980
16:00
V
15 °C 15 mi 8.100 ft 250° 250° 17 - 25 kt METAR CYPG 222100Z 25017G25KT 15SM FEW056 BKN081 15/02 A2946 RMK CU2AC5 DENSITY ALT 1667FT SLP983
15:00
V
16 °C 15 mi 8.700 ft 270° 270° 20 - 32 kt METAR CYPG 222000Z 27020G32KT 15SM SCT056 BKN087 16/02 A2946 RMK CU3AC4 DENSITY ALT 1802FT SLP982
14:00
V
16 °C 15 mi 23.000 ft 270° 270° 19 - 26 kt METAR CYPG 221900Z 27019G26KT 15SM SCT056 BKN230 16/02 A2946 RMK CU3CI3 DENSITY ALT 1852FT SLP981
13:00
V
16 °C 15 mi - 250° 250° 18 - 26 kt METAR CYPG 221800Z 25018G26KT 15SM FEW058 SCT100 SCT230 16/01 A2946 RMK CU2AC1CI1 DENSITY ALT 1845FT SLP981
12:00
V
16 °C 15 mi - 250° 250° 15 - 21 kt METAR CYPG 221700Z 25015G21KT 15SM FEW058 FEW100 SCT230 16/01 A2948 RMK CU1AC1CI1 DENSITY ALT 1773FT SLP987
11:00
V
14 °C 15 mi - 260° 260° 17 - 22 kt METAR CYPG 221600Z CCA 26017G22KT 15SM FEW100 SCT230 14/01 A2950 RMK AC2CI2 DENSITY ALT 1595FT SLP994
10:00
V
11 °C 15 mi 23.000 ft 250° 250° 15 kt METAR CYPG 221500Z 25015KT 15SM SCT095 SCT110 BKN230 11/00 A2951 RMK AC3AC1CI1 DENSITY ALT 1161FT SLP998
09:00
V
10 °C 15 mi 9.500 ft 250° 250° 14 - 20 kt METAR CYPG 221400Z CCA 25014G20KT 15SM BKN095 BKN130 10/M01 A2951 RMK AC6AC1 DENSITY ALT 1065FT VIRGA SKY CLRG FM W SLP997
08:00
V
10 °C 15 mi 10.000 ft 240° 240° 12 - 17 kt METAR CYPG 221300Z 24012G17KT 15SM BKN100 OVC130 10/M01 A2951 RMK AC6AC2 DENSITY ALT 1078FT VIRGA SLP996
07:00
V
6 °C 15 mi 10.000 ft 220° 220° 10 kt METAR CYPG 221200Z 22010KT 15SM BKN100 OVC130 06/M00 A2951 RMK AC7AC1 DENSITY ALT 521FT VIRGA SLP997
06:00
V
5 °C 15 mi 10.000 ft 120° 120° 5 kt METAR CYPG 221100Z 12005KT 15SM BKN100 OVC130 05/M01 A2953 RMK AC5AC3 DENSITY ALT 415FT FST OBS SLP003
Wijziging doorgeven